Portada
METAR-TAF:

METAR-TAF

Aeropuertos :

Puerto Príncipe, Haití

Aeropuerto Internacional Toussaint Louverture

latitud: 18-34N, longitud: 072-18W, altitud: 31 m

Observación

El informe se hizo hace 54 minutos, a las 23:00 UTC
Viento 6 kt del oeste
Temperatura 27°C
Humedad 74%
Presión 1014 hPa
Visibilidad 10 km o más
Escasas nubes a una altura de 2200 ft

METAR: MTPP 082300Z 27006KT 9999 FEW022 27/22 Q1014 A2994

Hora: 18:54 (23:54 UTC)

Pronóstico

El informe se hizo hace 54 minutos, a las 23:00 UTC
Pronóstico válido del 09 a las 00 UTC al 09 a las 24 UTC
Viento 5 kt del oeste-noroeste
Visibilidad 10 km o más
Escasas nubes a una altura de 2600 ft
A partir de las 09 a las 0600 UTC
Viento 2 kt con dirección variable
Visibilidad: 8000 m
Escasas nubes a una altura de 2200 ft
Evolucionando progresivamente
del 09 a las 13 UTC al 09 a las 15 UTC
Viento 10 kt del este

TAF: MTPP 082300Z 0900/0924 30005KT 9999 FEW026 FM090600 VRB02KT 8000 FEW022 BECMG 0913/0915 10010KT

Observaciones y pronósticos meteorológicos de más de 4000 aeropuertos (mensajes METAR y TAF).

Los puntos amarillos y rojos representan las estaciones disponibles.

Ponga el ratón en el punto deseado para ver el nombre de la estación.

Haga clic para ver las observaciones y los pronósticos meteorológicos.

Para cambiar el mapa : haga clic en los botones verdes con una cruz de color negro para hacer un zoom, en el botón verde con un guión para alejar o en las flechas verdes para mapas adyacentes.


METAR-TAF: